sensor_id;sensor_type;location;lat;lon;timestamp;pressure;altitude;pressure_sealevel;temperature;humidity
5691;BME280;2870;42.680;23.364;2023-02-28T00:01:20;95568.00;;;7.51;100.00
5691;BME280;2870;42.680;23.364;2023-02-28T00:03:47;95570.56;;;7.49;100.00
5691;BME280;2870;42.680;23.364;2023-02-28T00:06:14;95589.41;;;7.24;100.00
5691;BME280;2870;42.680;23.364;2023-02-28T00:08:41;95587.00;;;7.33;100.00
5691;BME280;2870;42.680;23.364;2023-02-28T00:11:11;95574.94;;;7.63;100.00
5691;BME280;2870;42.680;23.364;2023-02-28T00:13:41;95577.75;;;7.95;100.00
5691;BME280;2870;42.680;23.364;2023-02-28T00:16:10;95592.50;;;7.95;100.00
5691;BME280;2870;42.680;23.364;2023-02-28T00:18:39;95585.66;;;7.59;100.00
5691;BME280;2870;42.680;23.364;2023-02-28T00:21:06;95585.22;;;7.55;100.00
5691;BME280;2870;42.680;23.364;2023-02-28T00:23:33;95594.50;;;7.44;100.00
5691;BME280;2870;42.680;23.364;2023-02-28T00:26:01;95607.53;;;7.55;100.00
5691;BME280;2870;42.680;23.364;2023-02-28T00:28:29;95618.63;;;7.60;100.00
5691;BME280;2870;42.680;23.364;2023-02-28T00:30:56;95596.91;;;7.72;100.00
5691;BME280;2870;42.680;23.364;2023-02-28T00:33:25;95600.56;;;7.80;100.00
5691;BME280;2870;42.680;23.364;2023-02-28T00:35:52;95608.91;;;7.67;100.00
5691;BME280;2870;42.680;23.364;2023-02-28T00:38:19;95593.34;;;7.72;100.00
5691;BME280;2870;42.680;23.364;2023-02-28T00:40:45;95597.69;;;7.86;100.00
5691;BME280;2870;42.680;23.364;2023-02-28T00:43:12;95618.63;;;7.60;100.00
5691;BME280;2870;42.680;23.364;2023-02-28T00:45:40;95596.06;;;7.77;100.00
5691;BME280;2870;42.680;23.364;2023-02-28T00:48:07;95585.28;;;7.68;100.00
5691;BME280;2870;42.680;23.364;2023-02-28T00:50:34;95583.28;;;7.82;100.00
5691;BME280;2870;42.680;23.364;2023-02-28T00:53:00;95578.84;;;7.73;100.00
5691;BME280;2870;42.680;23.364;2023-02-28T00:55:27;95574.94;;;7.63;100.00
5691;BME280;2870;42.680;23.364;2023-02-28T00:57:54;95584.91;;;7.39;100.00
5691;BME280;2870;42.680;23.364;2023-02-28T01:00:21;95584.72;;;7.13;100.00
5691;BME280;2870;42.680;23.364;2023-02-28T01:02:49;95583.97;;;7.31;100.00
5691;BME280;2870;42.680;23.364;2023-02-28T01:05:16;95610.38;;;7.11;100.00
5691;BME280;2870;42.680;23.364;2023-02-28T01:07:43;95605.19;;;7.21;100.00
5691;BME280;2870;42.680;23.364;2023-02-28T01:10:10;95587.00;;;7.52;100.00
5691;BME280;2870;42.680;23.364;2023-02-28T01:12:37;95591.59;;;7.12;100.00
5691;BME280;2870;42.680;23.364;2023-02-28T01:15:05;95587.41;;;7.00;100.00
5691;BME280;2870;42.680;23.364;2023-02-28T01:17:32;95577.97;;;7.27;100.00
5691;BME280;2870;42.680;23.364;2023-02-28T01:20:00;95590.88;;;6.87;100.00
5691;BME280;2870;42.680;23.364;2023-02-28T01:22:27;95585.91;;;6.99;100.00
5691;BME280;2870;42.680;23.364;2023-02-28T01:24:53;95583.34;;;7.01;100.00
5691;BME280;2870;42.680;23.364;2023-02-28T01:27:20;95580.22;;;7.48;100.00
5691;BME280;2870;42.680;23.364;2023-02-28T01:29:47;95582.94;;;7.53;100.00
5691;BME280;2870;42.680;23.364;2023-02-28T01:32:14;95578.09;;;7.35;100.00
5691;BME280;2870;42.680;23.364;2023-02-28T01:34:41;95575.00;;;7.20;100.00
5691;BME280;2870;42.680;23.364;2023-02-28T01:37:09;95576.72;;;7.04;100.00
5691;BME280;2870;42.680;23.364;2023-02-28T01:39:36;95584.25;;;7.09;100.00
5691;BME280;2870;42.680;23.364;2023-02-28T01:42:03;95584.56;;;7.05;100.00
5691;BME280;2870;42.680;23.364;2023-02-28T01:44:59;95587.72;;;6.96;100.00
5691;BME280;2870;42.680;23.364;2023-02-28T01:47:29;95582.88;;;6.97;100.00
5691;BME280;2870;42.680;23.364;2023-02-28T01:49:58;95591.06;;;7.13;100.00
5691;BME280;2870;42.680;23.364;2023-02-28T01:52:29;95589.19;;;7.40;100.00
5691;BME280;2870;42.680;23.364;2023-02-28T01:54:59;95589.41;;;7.24;100.00
5691;BME280;2870;42.680;23.364;2023-02-28T01:57:30;95594.84;;;7.16;100.00
5691;BME280;2870;42.680;23.364;2023-02-28T02:00:05;95593.47;;;7.04;100.00
5691;BME280;2870;42.680;23.364;2023-02-28T02:02:36;95592.41;;;7.07;100.00
5691;BME280;2870;42.680;23.364;2023-02-28T02:05:06;95579.09;;;7.37;100.00
5691;BME280;2870;42.680;23.364;2023-02-28T02:07:37;95586.34;;;7.46;100.00
5691;BME280;2870;42.680;23.364;2023-02-28T02:10:06;95585.91;;;6.99;100.00
5691;BME280;2870;42.680;23.364;2023-02-28T02:13:05;95586.97;;;7.14;100.00
5691;BME280;2870;42.680;23.364;2023-02-28T02:15:40;95593.00;;;7.00;100.00
5691;BME280;2870;42.680;23.364;2023-02-28T02:18:16;95572.97;;;7.20;100.00
5691;BME280;2870;42.680;23.364;2023-02-28T02:21:11;95577.94;;;7.08;100.00
5691;BME280;2870;42.680;23.364;2023-02-28T02:24:09;95573.84;;;6.66;100.00
5691;BME280;2870;42.680;23.364;2023-02-28T02:26:58;95575.88;;;6.66;100.00
5691;BME280;2870;42.680;23.364;2023-02-28T02:29:42;95583.94;;;6.69;100.00
5691;BME280;2870;42.680;23.364;2023-02-28T02:32:44;95570.94;;;6.77;100.00
5691;BME280;2870;42.680;23.364;2023-02-28T02:35:20;95586.16;;;6.76;100.00
5691;BME280;2870;42.680;23.364;2023-02-28T02:37:54;95590.91;;;7.06;100.00
5691;BME280;2870;42.680;23.364;2023-02-28T02:40:32;95565.38;;;6.77;100.00
5691;BME280;2870;42.680;23.364;2023-02-28T02:43:07;95596.72;;;6.83;100.00
5691;BME280;2870;42.680;23.364;2023-02-28T02:45:41;95598.22;;;6.84;100.00
5691;BME280;2870;42.680;23.364;2023-02-28T02:48:11;95598.13;;;6.71;100.00
5691;BME280;2870;42.680;23.364;2023-02-28T02:50:44;95601.28;;;6.86;100.00
5691;BME280;2870;42.680;23.364;2023-02-28T02:53:15;95600.84;;;7.01;100.00
5691;BME280;2870;42.680;23.364;2023-02-28T02:55:47;95609.41;;;7.28;100.00
5691;BME280;2870;42.680;23.364;2023-02-28T02:58:23;95594.09;;;7.34;100.00
5691;BME280;2870;42.680;23.364;2023-02-28T03:00:53;95598.69;;;6.88;100.00
5691;BME280;2870;42.680;23.364;2023-02-28T03:03:21;95576.63;;;6.66;100.00
5691;BME280;2870;42.680;23.364;2023-02-28T03:05:56;95617.06;;;6.78;100.00
5691;BME280;2870;42.680;23.364;2023-02-28T03:08:23;95613.28;;;6.76;100.00
5691;BME280;2870;42.680;23.364;2023-02-28T03:10:51;95621.72;;;6.70;100.00
5691;BME280;2870;42.680;23.364;2023-02-28T03:13:52;95627.91;;;7.06;100.00
5691;BME280;2870;42.680;23.364;2023-02-28T03:16:34;95624.72;;;7.40;100.00
5691;BME280;2870;42.680;23.364;2023-02-28T03:19:15;95641.75;;;7.17;100.00
5691;BME280;2870;42.680;23.364;2023-02-28T03:21:56;95632.13;;;7.37;100.00
5691;BME280;2870;42.680;23.364;2023-02-28T03:24:32;95631.88;;;7.54;100.00
5691;BME280;2870;42.680;23.364;2023-02-28T03:27:06;95644.75;;;7.20;100.00
5691;BME280;2870;42.680;23.364;2023-02-28T03:29:37;95643.09;;;7.11;100.00
5691;BME280;2870;42.680;23.364;2023-02-28T03:32:10;95642.06;;;7.33;100.00
5691;BME280;2870;42.680;23.364;2023-02-28T03:34:48;95657.25;;;7.37;100.00
5691;BME280;2870;42.680;23.364;2023-02-28T03:37:21;95649.09;;;7.39;100.00
5691;BME280;2870;42.680;23.364;2023-02-28T03:39:53;95656.31;;;7.29;100.00
5691;BME280;2870;42.680;23.364;2023-02-28T03:42:25;95656.66;;;7.20;100.00
5691;BME280;2870;42.680;23.364;2023-02-28T03:44:56;95643.19;;;7.24;100.00
5691;BME280;2870;42.680;23.364;2023-02-28T03:47:28;95654.72;;;7.15;100.00
5691;BME280;2870;42.680;23.364;2023-02-28T03:49:59;95661.50;;;7.20;100.00
5691;BME280;2870;42.680;23.364;2023-02-28T03:52:32;95651.56;;;7.24;100.00
5691;BME280;2870;42.680;23.364;2023-02-28T03:55:03;95661.06;;;7.34;100.00
5691;BME280;2870;42.680;23.364;2023-02-28T03:57:37;95666.94;;;7.31;100.00
5691;BME280;2870;42.680;23.364;2023-02-28T04:00:10;95659.63;;;7.28;100.00
5691;BME280;2870;42.680;23.364;2023-02-28T04:02:39;95665.84;;;7.39;100.00
5691;BME280;2870;42.680;23.364;2023-02-28T04:05:06;95662.25;;;6.96;100.00
5691;BME280;2870;42.680;23.364;2023-02-28T04:07:35;95665.53;;;7.00;100.00
5691;BME280;2870;42.680;23.364;2023-02-28T04:10:03;95665.75;;;6.77;100.00
5691;BME280;2870;42.680;23.364;2023-02-28T04:12:30;95658.28;;;6.61;100.00
5691;BME280;2870;42.680;23.364;2023-02-28T04:14:57;95653.28;;;6.54;100.00
5691;BME280;2870;42.680;23.364;2023-02-28T04:17:24;95663.38;;;6.57;100.00
5691;BME280;2870;42.680;23.364;2023-02-28T04:19:51;95659.13;;;6.50;100.00
5691;BME280;2870;42.680;23.364;2023-02-28T04:22:19;95654.41;;;6.70;100.00
5691;BME280;2870;42.680;23.364;2023-02-28T04:24:47;95650.50;;;6.54;100.00
5691;BME280;2870;42.680;23.364;2023-02-28T04:27:14;95656.06;;;6.54;100.00
5691;BME280;2870;42.680;23.364;2023-02-28T04:29:41;95655.72;;;6.63;100.00
5691;BME280;2870;42.680;23.364;2023-02-28T04:32:10;95660.00;;;6.70;100.00
5691;BME280;2870;42.680;23.364;2023-02-28T04:34:37;95661.16;;;6.80;100.00
5691;BME280;2870;42.680;23.364;2023-02-28T04:37:04;95588.63;;;6.01;100.00
5691;BME280;2870;42.680;23.364;2023-02-28T04:39:35;95663.81;;;6.36;100.00
5691;BME280;2870;42.680;23.364;2023-02-28T04:42:04;95671.28;;;6.17;100.00
5691;BME280;2870;42.680;23.364;2023-02-28T04:44:31;95670.47;;;6.28;100.00
5691;BME280;2870;42.680;23.364;2023-02-28T04:46:58;95668.88;;;6.38;100.00
5691;BME280;2870;42.680;23.364;2023-02-28T04:49:25;95679.53;;;6.34;100.00
5691;BME280;2870;42.680;23.364;2023-02-28T04:51:52;95684.72;;;6.19;100.00
5691;BME280;2870;42.680;23.364;2023-02-28T04:54:19;95685.75;;;6.16;100.00
5691;BME280;2870;42.680;23.364;2023-02-28T04:56:45;95690.31;;;6.49;100.00
5691;BME280;2870;42.680;23.364;2023-02-28T04:59:16;95690.19;;;6.66;100.00
5691;BME280;2870;42.680;23.364;2023-02-28T05:01:46;95686.13;;;6.67;100.00
5691;BME280;2870;42.680;23.364;2023-02-28T05:04:13;95679.56;;;6.64;100.00
5691;BME280;2870;42.680;23.364;2023-02-28T05:06:40;95681.81;;;6.66;100.00
5691;BME280;2870;42.680;23.364;2023-02-28T05:09:07;95627.59;;;6.01;100.00
5691;BME280;2870;42.680;23.364;2023-02-28T05:11:34;95684.59;;;6.35;100.00
5691;BME280;2870;42.680;23.364;2023-02-28T05:14:01;95681.00;;;6.41;100.00
5691;BME280;2870;42.680;23.364;2023-02-28T05:16:30;95686.25;;;6.20;100.00
5691;BME280;2870;42.680;23.364;2023-02-28T05:18:58;95696.19;;;6.75;100.00
5691;BME280;2870;42.680;23.364;2023-02-28T05:21:28;95692.34;;;6.78;100.00
5691;BME280;2870;42.680;23.364;2023-02-28T05:23:56;95700.09;;;6.61;100.00
5691;BME280;2870;42.680;23.364;2023-02-28T05:26:24;95710.53;;;6.55;100.00
5691;BME280;2870;42.680;23.364;2023-02-28T05:28:51;95701.91;;;6.58;100.00
5691;BME280;2870;42.680;23.364;2023-02-28T05:31:18;95710.13;;;6.75;100.00
5691;BME280;2870;42.680;23.364;2023-02-28T05:33:46;95702.97;;;6.50;100.00
5691;BME280;2870;42.680;23.364;2023-02-28T05:36:13;95702.13;;;6.30;100.00
5691;BME280;2870;42.680;23.364;2023-02-28T05:38:39;95705.13;;;6.32;100.00
5691;BME280;2870;42.680;23.364;2023-02-28T05:41:07;95718.75;;;6.42;100.00
5691;BME280;2870;42.680;23.364;2023-02-28T05:43:34;95720.75;;;6.47;100.00
5691;BME280;2870;42.680;23.364;2023-02-28T05:46:03;95699.06;;;6.28;100.00
5691;BME280;2870;42.680;23.364;2023-02-28T05:48:30;95714.78;;;6.31;100.00
5691;BME280;2870;42.680;23.364;2023-02-28T05:50:59;95717.44;;;6.48;100.00
5691;BME280;2870;42.680;23.364;2023-02-28T05:53:26;95730.00;;;6.90;100.00
5691;BME280;2870;42.680;23.364;2023-02-28T05:55:53;95733.97;;;7.01;100.00
5691;BME280;2870;42.680;23.364;2023-02-28T05:58:20;95732.19;;;6.73;100.00
5691;BME280;2870;42.680;23.364;2023-02-28T06:00:47;95734.00;;;6.71;100.00
5691;BME280;2870;42.680;23.364;2023-02-28T06:03:14;95735.22;;;6.75;100.00
5691;BME280;2870;42.680;23.364;2023-02-28T06:05:41;95730.09;;;6.79;100.00
5691;BME280;2870;42.680;23.364;2023-02-28T06:08:09;95729.09;;;7.07;100.00
5691;BME280;2870;42.680;23.364;2023-02-28T06:10:35;95733.16;;;6.81;100.00
5691;BME280;2870;42.680;23.364;2023-02-28T06:13:03;95731.88;;;7.07;100.00
5691;BME280;2870;42.680;23.364;2023-02-28T06:15:31;95736.78;;;7.25;100.00
5691;BME280;2870;42.680;23.364;2023-02-28T06:17:58;95729.69;;;7.24;100.00
5691;BME280;2870;42.680;23.364;2023-02-28T06:20:26;95730.03;;;7.39;100.00
5691;BME280;2870;42.680;23.364;2023-02-28T06:22:55;95726.19;;;7.42;100.00
5691;BME280;2870;42.680;23.364;2023-02-28T06:25:25;95731.13;;;7.55;100.00
5691;BME280;2870;42.680;23.364;2023-02-28T06:27:52;95735.09;;;7.16;100.00
5691;BME280;2870;42.680;23.364;2023-02-28T06:30:20;95734.72;;;7.01;100.00
5691;BME280;2870;42.680;23.364;2023-02-28T06:32:49;95742.16;;;6.93;100.00
5691;BME280;2870;42.680;23.364;2023-02-28T06:35:17;95747.44;;;7.27;100.00
5691;BME280;2870;42.680;23.364;2023-02-28T06:37:44;95752.75;;;7.25;100.00
5691;BME280;2870;42.680;23.364;2023-02-28T06:40:13;95743.06;;;7.56;100.00
5691;BME280;2870;42.680;23.364;2023-02-28T06:42:41;95742.81;;;7.54;100.00
5691;BME280;2870;42.680;23.364;2023-02-28T06:45:09;95750.97;;;6.97;100.00
5691;BME280;2870;42.680;23.364;2023-02-28T06:47:37;95749.69;;;7.04;100.00
5691;BME280;2870;42.680;23.364;2023-02-28T06:50:04;95757.00;;;7.07;100.00
5691;BME280;2870;42.680;23.364;2023-02-28T06:52:31;95753.50;;;7.25;100.00
5691;BME280;2870;42.680;23.364;2023-02-28T06:55:01;95743.94;;;7.45;100.00
5691;BME280;2870;42.680;23.364;2023-02-28T06:57:29;95752.66;;;6.81;100.00
5691;BME280;2870;42.680;23.364;2023-02-28T06:59:59;95747.22;;;6.95;100.00
5691;BME280;2870;42.680;23.364;2023-02-28T07:02:26;95755.97;;;7.10;100.00
5691;BME280;2870;42.680;23.364;2023-02-28T07:04:53;95757.22;;;7.09;100.00
5691;BME280;2870;42.680;23.364;2023-02-28T07:07:20;95752.47;;;7.28;100.00
5691;BME280;2870;42.680;23.364;2023-02-28T07:09:47;95754.22;;;7.56;100.00
5691;BME280;2870;42.680;23.364;2023-02-28T07:12:14;95746.41;;;7.49;100.00
5691;BME280;2870;42.680;23.364;2023-02-28T07:14:40;95746.94;;;7.47;100.00
5691;BME280;2870;42.680;23.364;2023-02-28T07:17:09;95750.78;;;7.68;100.00
5691;BME280;2870;42.680;23.364;2023-02-28T07:19:37;95749.22;;;7.92;100.00
5691;BME280;2870;42.680;23.364;2023-02-28T07:22:04;95749.44;;;7.94;100.00
5691;BME280;2870;42.680;23.364;2023-02-28T07:24:31;95748.13;;;7.76;100.00
5691;BME280;2870;42.680;23.364;2023-02-28T07:26:58;95753.91;;;8.03;100.00
5691;BME280;2870;42.680;23.364;2023-02-28T07:29:26;95760.31;;;8.16;100.00
5691;BME280;2870;42.680;23.364;2023-02-28T07:31:53;95761.97;;;7.87;100.00
5691;BME280;2870;42.680;23.364;2023-02-28T07:34:22;95745.38;;;7.52;100.00
5691;BME280;2870;42.680;23.364;2023-02-28T07:36:48;95751.41;;;7.80;100.00
5691;BME280;2870;42.680;23.364;2023-02-28T07:39:19;95751.66;;;8.20;100.00
5691;BME280;2870;42.680;23.364;2023-02-28T07:41:46;95756.03;;;8.34;99.78
5691;BME280;2870;42.680;23.364;2023-02-28T07:44:13;95758.53;;;8.38;98.58
5691;BME280;2870;42.680;23.364;2023-02-28T07:46:40;95757.53;;;8.16;100.00
5691;BME280;2870;42.680;23.364;2023-02-28T07:49:07;95758.66;;;8.27;100.00
5691;BME280;2870;42.680;23.364;2023-02-28T07:51:35;95750.31;;;8.45;100.00
5691;BME280;2870;42.680;23.364;2023-02-28T07:54:02;95765.75;;;8.28;100.00
5691;BME280;2870;42.680;23.364;2023-02-28T07:56:29;95745.31;;;8.19;100.00
5691;BME280;2870;42.680;23.364;2023-02-28T07:58:56;95754.91;;;8.24;100.00
5691;BME280;2870;42.680;23.364;2023-02-28T08:01:23;95744.16;;;8.09;100.00
5691;BME280;2870;42.680;23.364;2023-02-28T08:03:49;95747.63;;;8.15;100.00
5691;BME280;2870;42.680;23.364;2023-02-28T08:06:18;95742.69;;;8.46;100.00
5691;BME280;2870;42.680;23.364;2023-02-28T08:08:47;95744.59;;;8.70;100.00
5691;BME280;2870;42.680;23.364;2023-02-28T08:11:14;95750.53;;;8.47;100.00
5691;BME280;2870;42.680;23.364;2023-02-28T08:13:41;95747.22;;;8.81;100.00
5691;BME280;2870;42.680;23.364;2023-02-28T08:16:09;95744.91;;;9.12;100.00
5691;BME280;2870;42.680;23.364;2023-02-28T08:18:36;95742.56;;;9.29;100.00
5691;BME280;2870;42.680;23.364;2023-02-28T08:21:06;95743.44;;;9.24;100.00
5691;BME280;2870;42.680;23.364;2023-02-28T08:23:33;95738.06;;;9.26;100.00
5691;BME280;2870;42.680;23.364;2023-02-28T08:26:02;95706.81;;;9.35;99.70
5691;BME280;2870;42.680;23.364;2023-02-28T08:28:29;95750.16;;;9.87;98.22
5691;BME280;2870;42.680;23.364;2023-02-28T08:30:56;95757.31;;;10.22;98.61
5691;BME280;2870;42.680;23.364;2023-02-28T08:33:23;95745.16;;;10.06;98.54
5691;BME280;2870;42.680;23.364;2023-02-28T08:35:52;95750.75;;;10.06;99.20
5691;BME280;2870;42.680;23.364;2023-02-28T08:38:19;95752.56;;;10.30;98.66
5691;BME280;2870;42.680;23.364;2023-02-28T08:40:47;95756.84;;;10.45;100.00
5691;BME280;2870;42.680;23.364;2023-02-28T08:43:15;95749.78;;;10.85;97.31
5691;BME280;2870;42.680;23.364;2023-02-28T08:45:42;95756.69;;;11.05;95.42
5691;BME280;2870;42.680;23.364;2023-02-28T08:48:09;95753.94;;;11.34;94.23
5691;BME280;2870;42.680;23.364;2023-02-28T08:50:35;95752.25;;;11.31;93.89
5691;BME280;2870;42.680;23.364;2023-02-28T08:53:02;95748.53;;;11.36;94.08
5691;BME280;2870;42.680;23.364;2023-02-28T08:55:29;95754.50;;;11.82;92.47
5691;BME280;2870;42.680;23.364;2023-02-28T08:57:56;95757.63;;;12.07;89.77
5691;BME280;2870;42.680;23.364;2023-02-28T09:00:25;95754.78;;;12.43;87.78
5691;BME280;2870;42.680;23.364;2023-02-28T09:02:52;95760.31;;;12.20;88.41
5691;BME280;2870;42.680;23.364;2023-02-28T09:05:20;95770.69;;;12.33;88.15
5691;BME280;2870;42.680;23.364;2023-02-28T09:07:46;95761.81;;;11.85;88.48
5691;BME280;2870;42.680;23.364;2023-02-28T09:10:13;95761.38;;;12.53;85.49
5691;BME280;2870;42.680;23.364;2023-02-28T09:12:40;95758.13;;;13.00;83.60
5691;BME280;2870;42.680;23.364;2023-02-28T09:15:08;95758.09;;;12.93;82.58
5691;BME280;2870;42.680;23.364;2023-02-28T09:17:36;95760.78;;;13.37;82.41
5691;BME280;2870;42.680;23.364;2023-02-28T09:20:03;95762.56;;;12.65;83.18
5691;BME280;2870;42.680;23.364;2023-02-28T09:22:30;95759.19;;;12.74;82.78
5691;BME280;2870;42.680;23.364;2023-02-28T09:24:57;95762.25;;;13.15;82.31
5691;BME280;2870;42.680;23.364;2023-02-28T09:27:24;95751.88;;;14.01;80.69
5691;BME280;2870;42.680;23.364;2023-02-28T09:29:51;95751.00;;;13.68;78.38
5691;BME280;2870;42.680;23.364;2023-02-28T09:32:18;95757.47;;;14.24;76.55
5691;BME280;2870;42.680;23.364;2023-02-28T09:34:46;95750.81;;;14.37;77.06
5691;BME280;2870;42.680;23.364;2023-02-28T09:37:13;95757.47;;;14.17;76.77
5691;BME280;2870;42.680;23.364;2023-02-28T09:39:39;95751.94;;;14.34;75.51
5691;BME280;2870;42.680;23.364;2023-02-28T09:42:17;95754.56;;;13.84;77.00
5691;BME280;2870;42.680;23.364;2023-02-28T09:44:46;95749.06;;;13.94;78.63
5691;BME280;2870;42.680;23.364;2023-02-28T09:47:18;95763.22;;;14.42;74.64
5691;BME280;2870;42.680;23.364;2023-02-28T09:49:52;95757.38;;;14.40;76.16
5691;BME280;2870;42.680;23.364;2023-02-28T09:52:22;95749.41;;;14.61;73.27
5691;BME280;2870;42.680;23.364;2023-02-28T09:54:50;95747.53;;;14.08;74.72
5691;BME280;2870;42.680;23.364;2023-02-28T09:57:32;95744.91;;;13.95;76.06
5691;BME280;2870;42.680;23.364;2023-02-28T10:00:08;95744.88;;;14.10;75.65
5691;BME280;2870;42.680;23.364;2023-02-28T10:02:57;95744.69;;;14.16;75.49
5691;BME280;2870;42.680;23.364;2023-02-28T10:05:33;95738.97;;;13.75;76.94
5691;BME280;2870;42.680;23.364;2023-02-28T10:08:05;95741.09;;;14.71;75.28
5691;BME280;2870;42.680;23.364;2023-02-28T10:10:37;95734.16;;;14.64;72.78
5691;BME280;2870;42.680;23.364;2023-02-28T10:13:12;95733.66;;;14.83;72.81
5691;BME280;2870;42.680;23.364;2023-02-28T10:15:40;95731.94;;;14.55;71.29
5691;BME280;2870;42.680;23.364;2023-02-28T10:18:11;95733.28;;;15.36;71.05
5691;BME280;2870;42.680;23.364;2023-02-28T10:20:42;95734.41;;;14.51;72.08
5691;BME280;2870;42.680;23.364;2023-02-28T10:23:13;95740.06;;;14.83;72.20
5691;BME280;2870;42.680;23.364;2023-02-28T10:25:47;95732.09;;;14.65;71.46
5691;BME280;2870;42.680;23.364;2023-02-28T10:28:17;95715.56;;;14.13;73.70
5691;BME280;2870;42.680;23.364;2023-02-28T10:30:47;95718.69;;;13.62;73.57
5691;BME280;2870;42.680;23.364;2023-02-28T10:33:21;95724.13;;;13.75;73.93
5691;BME280;2870;42.680;23.364;2023-02-28T10:35:51;95720.91;;;13.86;74.39
5691;BME280;2870;42.680;23.364;2023-02-28T10:38:21;95707.66;;;14.84;72.46
5691;BME280;2870;42.680;23.364;2023-02-28T10:40:48;95707.38;;;15.48;68.99
5691;BME280;2870;42.680;23.364;2023-02-28T10:43:22;95708.09;;;15.06;69.38
5691;BME280;2870;42.680;23.364;2023-02-28T10:46:12;95698.56;;;15.19;68.75
5691;BME280;2870;42.680;23.364;2023-02-28T10:48:42;95698.13;;;15.05;69.09
5691;BME280;2870;42.680;23.364;2023-02-28T10:51:13;95697.44;;;14.24;70.31
5691;BME280;2870;42.680;23.364;2023-02-28T10:53:49;95686.47;;;15.01;69.15
5691;BME280;2870;42.680;23.364;2023-02-28T10:56:18;95688.25;;;14.64;69.91
5691;BME280;2870;42.680;23.364;2023-02-28T10:58:58;95681.38;;;14.42;70.31
5691;BME280;2870;42.680;23.364;2023-02-28T11:01:34;95669.91;;;14.72;71.40
5691;BME280;2870;42.680;23.364;2023-02-28T11:04:02;95666.34;;;14.72;69.41
5691;BME280;2870;42.680;23.364;2023-02-28T11:06:32;95640.44;;;14.25;70.67
5691;BME280;2870;42.680;23.364;2023-02-28T11:09:03;95664.34;;;14.57;70.88
5691;BME280;2870;42.680;23.364;2023-02-28T11:11:42;95666.50;;;14.49;70.58
5691;BME280;2870;42.680;23.364;2023-02-28T11:14:18;95665.06;;;14.65;71.46
5691;BME280;2870;42.680;23.364;2023-02-28T11:16:47;95668.94;;;14.04;71.34
5691;BME280;2870;42.680;23.364;2023-02-28T11:19:19;95664.41;;;14.09;71.81
5691;BME280;2870;42.680;23.364;2023-02-28T11:21:53;95656.31;;;14.46;72.57
5691;BME280;2870;42.680;23.364;2023-02-28T11:24:24;95653.38;;;14.28;71.59
5691;BME280;2870;42.680;23.364;2023-02-28T11:26:53;95655.69;;;13.74;72.78
5691;BME280;2870;42.680;23.364;2023-02-28T11:29:22;95658.50;;;13.74;75.67
5691;BME280;2870;42.680;23.364;2023-02-28T11:32:12;95655.25;;;13.93;73.23
5691;BME280;2870;42.680;23.364;2023-02-28T11:34:40;95655.91;;;13.61;72.22
5691;BME280;2870;42.680;23.364;2023-02-28T11:37:14;95645.06;;;13.19;74.21
5691;BME280;2870;42.680;23.364;2023-02-28T11:39:42;95654.81;;;13.49;73.65
5691;BME280;2870;42.680;23.364;2023-02-28T11:42:39;95644.31;;;13.04;76.08
5691;BME280;2870;42.680;23.364;2023-02-28T11:45:24;95638.50;;;13.09;76.33
5691;BME280;2870;42.680;23.364;2023-02-28T11:48:04;95645.44;;;13.08;75.32
5691;BME280;2870;42.680;23.364;2023-02-28T11:50:52;95647.25;;;13.67;75.73
5691;BME280;2870;42.680;23.364;2023-02-28T11:53:36;95635.97;;;13.74;74.04
5691;BME280;2870;42.680;23.364;2023-02-28T11:56:10;95632.25;;;13.57;74.27
5691;BME280;2870;42.680;23.364;2023-02-28T11:58:48;95634.88;;;13.62;74.30
5691;BME280;2870;42.680;23.364;2023-02-28T12:01:33;95644.31;;;13.26;75.94
5691;BME280;2870;42.680;23.364;2023-02-28T12:04:13;95629.31;;;13.24;73.76
5691;BME280;2870;42.680;23.364;2023-02-28T12:06:48;95641.13;;;13.38;74.36
5691;BME280;2870;42.680;23.364;2023-02-28T12:09:44;95643.25;;;13.77;73.01
5691;BME280;2870;42.680;23.364;2023-02-28T12:12:27;95610.88;;;13.15;73.82
5691;BME280;2870;42.680;23.364;2023-02-28T12:15:31;95634.75;;;13.93;73.01
5691;BME280;2870;42.680;23.364;2023-02-28T12:18:13;95602.53;;;13.63;72.50
5691;BME280;2870;42.680;23.364;2023-02-28T12:20:48;95630.63;;;13.31;74.65
5691;BME280;2870;42.680;23.364;2023-02-28T12:23:32;95624.44;;;12.79;77.00
5691;BME280;2870;42.680;23.364;2023-02-28T12:26:11;95626.31;;;12.99;77.35
5691;BME280;2870;42.680;23.364;2023-02-28T12:28:43;95618.22;;;12.65;77.71
5691;BME280;2870;42.680;23.364;2023-02-28T12:31:17;95628.19;;;13.04;77.12
5691;BME280;2870;42.680;23.364;2023-02-28T12:33:47;95627.44;;;12.96;76.06
5691;BME280;2870;42.680;23.364;2023-02-28T12:36:18;95631.16;;;13.44;75.00
5691;BME280;2870;42.680;23.364;2023-02-28T12:38:49;95637.09;;;13.71;74.26
5691;BME280;2870;42.680;23.364;2023-02-28T12:41:24;95627.19;;;13.47;73.38
5691;BME280;2870;42.680;23.364;2023-02-28T12:43:57;95622.41;;;13.81;72.58
5691;BME280;2870;42.680;23.364;2023-02-28T12:46:31;95612.72;;;13.99;71.87
5691;BME280;2870;42.680;23.364;2023-02-28T12:49:05;95610.34;;;13.88;70.33
5691;BME280;2870;42.680;23.364;2023-02-28T12:51:34;95612.38;;;13.95;71.38
5691;BME280;2870;42.680;23.364;2023-02-28T12:54:10;95610.91;;;13.31;72.59
5691;BME280;2870;42.680;23.364;2023-02-28T12:56:46;95614.31;;;12.91;73.76
5691;BME280;2870;42.680;23.364;2023-02-28T12:59:21;95611.47;;;12.76;74.78
5691;BME280;2870;42.680;23.364;2023-02-28T13:02:20;95619.56;;;12.56;76.01
5691;BME280;2870;42.680;23.364;2023-02-28T13:05:39;95619.75;;;12.89;74.78
5691;BME280;2870;42.680;23.364;2023-02-28T13:08:28;95612.75;;;13.36;73.49
5691;BME280;2870;42.680;23.364;2023-02-28T13:11:03;95602.66;;;12.94;74.71
5691;BME280;2870;42.680;23.364;2023-02-28T13:13:31;95612.59;;;13.11;74.81
5691;BME280;2870;42.680;23.364;2023-02-28T13:16:04;95609.00;;;13.10;73.64
5691;BME280;2870;42.680;23.364;2023-02-28T13:18:34;95613.88;;;13.33;73.27
5691;BME280;2870;42.680;23.364;2023-02-28T13:21:03;95599.81;;;13.25;74.43
5691;BME280;2870;42.680;23.364;2023-02-28T13:23:59;95601.72;;;12.84;76.25
5691;BME280;2870;42.680;23.364;2023-02-28T13:29:32;95603.00;;;13.14;75.67
5691;BME280;2870;42.680;23.364;2023-02-28T13:32:34;95608.28;;;13.25;74.02
5691;BME280;2870;42.680;23.364;2023-02-28T13:35:35;95608.19;;;13.56;72.35